createdAt,value
2023-05-14T00:01:34.988Z,88.03
2023-05-14T00:04:06.027Z,88.36
2023-05-14T00:06:34.179Z,88.45
2023-05-14T00:09:02.458Z,88.62
2023-05-14T00:11:30.759Z,88.78
2023-05-14T00:16:41.110Z,88.94
2023-05-14T00:21:55.765Z,89.03
2023-05-14T00:24:27.862Z,89.04
2023-05-14T00:27:05.852Z,88.92
2023-05-14T00:29:34.618Z,89.05
2023-05-14T00:32:07.307Z,89.06
2023-05-14T00:34:37.458Z,89.16
2023-05-14T00:39:47.919Z,89.25
2023-05-14T00:42:16.308Z,89.39
2023-05-14T00:44:46.026Z,89.46
2023-05-14T00:47:15.435Z,89.52
2023-05-14T00:49:44.275Z,89.72
2023-05-14T00:52:13.241Z,89.90
2023-05-14T00:54:41.994Z,90.14
2023-05-14T00:57:10.465Z,90.35
2023-05-14T00:59:44.553Z,90.51
2023-05-14T01:02:22.013Z,90.63
2023-05-14T01:04:51.418Z,90.71
2023-05-14T01:07:55.171Z,90.87
2023-05-14T01:10:50.350Z,90.90
2023-05-14T01:16:21.861Z,91.26
2023-05-14T01:18:55.610Z,91.45
2023-05-14T01:21:43.315Z,91.42
2023-05-14T01:24:12.250Z,91.48
2023-05-14T01:26:41.072Z,91.59
2023-05-14T01:29:09.204Z,91.81
2023-05-14T01:31:49.353Z,91.99
2023-05-14T01:34:22.955Z,92.22
2023-05-14T01:36:57.186Z,92.31
2023-05-14T01:39:26.856Z,92.36
2023-05-14T01:41:57.512Z,92.43
2023-05-14T01:44:26.096Z,92.55
2023-05-14T01:46:55.174Z,92.66
2023-05-14T01:49:24.293Z,92.87
2023-05-14T01:51:53.144Z,92.97
2023-05-14T01:54:21.210Z,93.20
2023-05-14T01:56:49.394Z,93.36
2023-05-14T01:59:18.305Z,93.46
2023-05-14T02:01:46.695Z,93.64
2023-05-14T02:04:15.075Z,93.76
2023-05-14T02:06:44.313Z,93.79
2023-05-14T02:09:12.330Z,93.81
2023-05-14T02:11:40.749Z,94.04
2023-05-14T02:14:08.987Z,94.24
2023-05-14T02:16:42.171Z,94.48
2023-05-14T02:19:10.761Z,94.72
2023-05-14T02:21:39.937Z,94.81
2023-05-14T02:24:08.221Z,95.04
2023-05-14T02:26:36.706Z,95.07
2023-05-14T02:29:04.670Z,95.30
2023-05-14T02:31:32.819Z,95.39
2023-05-14T02:34:03.252Z,95.45
2023-05-14T02:36:35.660Z,95.62
2023-05-14T02:39:04.935Z,95.87
2023-05-14T02:41:33.263Z,96.00
2023-05-14T02:44:01.618Z,96.21
2023-05-14T02:46:30.921Z,96.29
2023-05-14T02:48:59.133Z,96.34
2023-05-14T02:51:27.374Z,96.36
2023-05-14T02:53:55.628Z,96.37
2023-05-14T02:56:26.553Z,96.49
2023-05-14T02:58:57.380Z,96.65
2023-05-14T03:01:28.989Z,96.75
2023-05-14T03:04:00.924Z,96.83
2023-05-14T03:06:29.126Z,96.91
2023-05-14T03:08:59.768Z,97.01
2023-05-14T03:11:27.668Z,97.13
2023-05-14T03:13:55.800Z,97.30
2023-05-14T03:16:23.972Z,97.38
2023-05-14T03:18:54.563Z,97.36
2023-05-14T03:21:22.670Z,97.47
2023-05-14T03:23:50.898Z,97.61
2023-05-14T03:26:20.206Z,97.66
2023-05-14T03:28:48.772Z,97.72
2023-05-14T03:31:17.126Z,97.72
2023-05-14T03:33:45.555Z,97.73
2023-05-14T03:36:13.544Z,97.81
2023-05-14T03:38:41.555Z,97.75
2023-05-14T03:41:09.694Z,97.84
2023-05-14T03:43:38.354Z,98.00
2023-05-14T03:46:06.678Z,98.06
2023-05-14T03:48:34.930Z,98.11
2023-05-14T03:51:05.740Z,98.20
2023-05-14T03:53:35.511Z,98.33
2023-05-14T03:56:05.940Z,98.32
2023-05-14T03:58:33.972Z,98.42
2023-05-14T04:01:02.189Z,98.50
2023-05-14T04:03:33.057Z,98.46
2023-05-14T04:06:01.998Z,98.51
2023-05-14T04:08:30.454Z,98.46
2023-05-14T04:10:58.521Z,98.50
2023-05-14T04:13:26.668Z,98.46
2023-05-14T04:15:56.511Z,98.49
2023-05-14T04:18:27.196Z,98.28
2023-05-14T04:20:56.726Z,97.95
2023-05-14T04:23:27.935Z,97.59
2023-05-14T04:25:57.512Z,97.29
2023-05-14T04:28:26.543Z,96.64
2023-05-14T04:30:55.307Z,96.15
2023-05-14T04:33:25.372Z,95.90
2023-05-14T04:35:56.511Z,96.06
2023-05-14T04:38:26.016Z,95.92
2023-05-14T04:40:55.441Z,95.80
2023-05-14T04:43:26.528Z,95.54
2023-05-14T04:45:55.042Z,95.01
2023-05-14T04:48:23.455Z,94.23
2023-05-14T04:50:52.235Z,93.51
2023-05-14T04:53:20.429Z,92.03
2023-05-14T04:55:48.504Z,89.81
2023-05-14T04:58:16.671Z,88.52
2023-05-14T05:00:45.873Z,87.55
2023-05-14T05:03:14.024Z,86.19
2023-05-14T05:05:42.415Z,85.58
2023-05-14T05:08:11.636Z,85.51
2023-05-14T05:13:21.768Z,83.54
2023-05-14T05:15:49.750Z,82.23
2023-05-14T05:18:20.180Z,81.30
2023-05-14T05:20:48.279Z,82.73
2023-05-14T05:23:16.489Z,82.03
2023-05-14T05:25:44.753Z,81.24
2023-05-14T05:28:12.624Z,81.48
2023-05-14T05:30:41.119Z,80.94
2023-05-14T05:33:09.840Z,78.48
2023-05-14T05:35:40.839Z,77.56
2023-05-14T05:38:09.104Z,77.53
2023-05-14T05:43:22.680Z,78.54
2023-05-14T05:45:51.278Z,78.85
2023-05-14T05:48:19.625Z,78.38
2023-05-14T05:50:56.336Z,78.58
2023-05-14T05:53:25.972Z,76.01
2023-05-14T05:55:55.325Z,76.77
2023-05-14T05:58:25.980Z,77.46
2023-05-14T06:00:56.407Z,78.56
2023-05-14T06:03:25.086Z,76.58
2023-05-14T06:05:53.599Z,75.09
2023-05-14T06:08:22.282Z,76.61
2023-05-14T06:10:50.317Z,75.80
2023-05-14T06:13:18.596Z,75.09
2023-05-14T06:15:49.717Z,75.64
2023-05-14T06:18:25.724Z,75.32
2023-05-14T06:20:54.480Z,75.48
2023-05-14T06:23:24.968Z,76.41
2023-05-14T06:25:58.871Z,74.99
2023-05-14T06:28:29.666Z,75.63
2023-05-14T06:31:07.076Z,75.65
2023-05-14T06:33:43.890Z,78.21
2023-05-14T06:36:13.935Z,79.46
2023-05-14T06:38:44.760Z,79.87
2023-05-14T06:41:16.184Z,81.39
2023-05-14T06:43:44.585Z,82.45
2023-05-14T06:46:12.974Z,83.71
2023-05-14T06:48:43.270Z,83.06
2023-05-14T06:51:16.625Z,79.30
2023-05-14T06:53:49.753Z,77.90
2023-05-14T06:56:18.779Z,79.03
2023-05-14T06:58:50.738Z,79.75
2023-05-14T07:01:21.661Z,77.98
2023-05-14T07:03:51.035Z,75.76
2023-05-14T07:06:19.411Z,78.17
2023-05-14T07:08:47.532Z,75.69
2023-05-14T07:11:20.565Z,73.70
2023-05-14T07:13:48.729Z,74.08
2023-05-14T07:16:19.375Z,76.96
2023-05-14T07:18:47.699Z,77.70
2023-05-14T07:21:16.553Z,77.14
2023-05-14T07:23:44.562Z,76.28
2023-05-14T07:26:12.565Z,75.08
2023-05-14T07:28:40.814Z,75.18
2023-05-14T07:31:09.322Z,74.44
2023-05-14T07:33:38.012Z,74.31
2023-05-14T07:36:06.711Z,72.88
2023-05-14T07:38:35.155Z,70.89
2023-05-14T07:41:03.349Z,68.82
2023-05-14T07:43:32.213Z,67.70
2023-05-14T07:46:03.784Z,69.80
2023-05-14T07:51:17.200Z,67.03
2023-05-14T07:56:27.867Z,66.80
2023-05-14T07:58:57.916Z,68.87
2023-05-14T08:01:26.801Z,68.07
2023-05-14T08:03:55.179Z,65.33
2023-05-14T08:06:25.490Z,65.04
2023-05-14T08:08:53.631Z,64.41
2023-05-14T08:11:22.655Z,63.33
2023-05-14T08:13:50.699Z,65.62
2023-05-14T08:16:18.870Z,65.07
2023-05-14T08:18:48.129Z,65.01
2023-05-14T08:21:16.567Z,67.14
2023-05-14T08:23:44.668Z,66.85
2023-05-14T08:26:15.546Z,66.31
2023-05-14T08:28:46.510Z,67.72
2023-05-14T08:31:14.904Z,68.02
2023-05-14T08:33:43.375Z,64.76
2023-05-14T08:36:11.952Z,61.56
2023-05-14T08:38:42.990Z,64.81
2023-05-14T08:41:13.076Z,63.53
2023-05-14T08:43:49.615Z,61.13
2023-05-14T08:46:23.249Z,62.85
2023-05-14T08:49:12.117Z,61.35
2023-05-14T08:51:57.678Z,63.94
2023-05-14T08:54:35.173Z,61.86
2023-05-14T08:57:13.336Z,63.66
2023-05-14T08:59:49.760Z,62.05
2023-05-14T09:02:37.702Z,63.99
2023-05-14T09:05:09.588Z,63.76
2023-05-14T09:08:05.981Z,64.61
2023-05-14T09:10:42.296Z,61.78
2023-05-14T09:13:26.321Z,61.78
2023-05-14T09:16:02.803Z,61.31
2023-05-14T09:18:48.054Z,61.10
2023-05-14T09:21:33.647Z,62.19
2023-05-14T09:24:05.785Z,60.77
2023-05-14T09:26:35.473Z,61.88
2023-05-14T09:29:04.257Z,61.45
2023-05-14T09:34:43.263Z,58.99
2023-05-14T09:37:11.986Z,60.65
2023-05-14T09:39:40.687Z,59.82
2023-05-14T09:42:10.030Z,60.93
2023-05-14T09:44:43.883Z,60.37
2023-05-14T09:47:17.092Z,61.20
2023-05-14T09:49:48.671Z,62.23
2023-05-14T09:52:19.897Z,62.70
2023-05-14T09:54:51.280Z,62.56
2023-05-14T09:57:20.538Z,63.69
2023-05-14T09:59:49.160Z,61.46
2023-05-14T10:02:27.530Z,63.26
2023-05-14T10:04:59.173Z,63.95
2023-05-14T10:07:33.920Z,63.25
2023-05-14T10:10:09.008Z,63.20
2023-05-14T10:12:45.219Z,61.70
2023-05-14T10:15:24.997Z,61.47
2023-05-14T10:17:58.802Z,63.17
2023-05-14T10:20:28.153Z,62.75
2023-05-14T10:23:00.349Z,62.79
2023-05-14T10:25:31.550Z,61.99
2023-05-14T10:28:03.758Z,59.49
2023-05-14T10:30:34.542Z,60.34
2023-05-14T10:33:10.130Z,60.73
2023-05-14T10:36:05.485Z,59.52
2023-05-14T10:38:40.760Z,58.46
2023-05-14T10:41:23.662Z,59.00
2023-05-14T10:43:52.757Z,58.00
2023-05-14T10:46:21.461Z,56.27
2023-05-14T10:48:51.077Z,58.03
2023-05-14T10:51:23.190Z,58.70
2023-05-14T10:53:56.967Z,58.14
2023-05-14T10:56:39.974Z,58.07
2023-05-14T10:59:11.668Z,58.73
2023-05-14T11:01:42.577Z,56.09
2023-05-14T11:04:19.264Z,55.52
2023-05-14T11:06:48.788Z,58.46
2023-05-14T11:09:20.315Z,55.91
2023-05-14T11:11:52.896Z,56.32
2023-05-14T11:14:22.896Z,55.64
2023-05-14T11:16:51.342Z,55.45
2023-05-14T11:19:25.608Z,57.05
2023-05-14T11:21:53.784Z,57.93
2023-05-14T11:24:22.196Z,55.79
2023-05-14T11:26:51.140Z,56.68
2023-05-14T11:29:19.536Z,55.02
2023-05-14T11:31:48.152Z,55.76
2023-05-14T11:34:16.651Z,55.35
2023-05-14T11:36:45.091Z,56.45
2023-05-14T11:39:19.528Z,57.74
2023-05-14T11:41:47.776Z,52.90
2023-05-14T11:44:16.099Z,57.14
2023-05-14T11:46:55.607Z,57.93
2023-05-14T11:49:27.651Z,56.75
2023-05-14T11:52:05.386Z,55.31
2023-05-14T11:54:36.034Z,54.73
2023-05-14T11:57:14.982Z,56.59
2023-05-14T11:59:43.472Z,55.32
2023-05-14T12:02:14.607Z,52.15
2023-05-14T12:04:43.812Z,51.14
2023-05-14T12:07:17.981Z,50.21
2023-05-14T12:09:51.813Z,51.33
2023-05-14T12:12:22.427Z,50.04
2023-05-14T12:14:52.693Z,52.48
2023-05-14T12:17:24.474Z,51.44
2023-05-14T12:19:53.871Z,52.01
2023-05-14T12:22:23.277Z,50.20
2023-05-14T12:24:56.104Z,49.37
2023-05-14T12:27:26.640Z,49.60
2023-05-14T12:30:19.958Z,47.43
2023-05-14T12:32:52.147Z,47.85
2023-05-14T12:35:23.394Z,47.62
2023-05-14T12:37:52.052Z,50.05
2023-05-14T12:40:20.702Z,51.62
2023-05-14T12:42:48.754Z,51.29
2023-05-14T12:45:16.983Z,52.87
2023-05-14T12:47:47.916Z,52.93
2023-05-14T12:50:16.503Z,47.92
2023-05-14T12:52:48.639Z,49.29
2023-05-14T12:55:17.307Z,48.66
2023-05-14T12:57:50.460Z,48.22
2023-05-14T13:00:21.378Z,48.43
2023-05-14T13:02:49.830Z,46.89
2023-05-14T13:05:26.216Z,52.09
2023-05-14T13:07:54.947Z,51.80
2023-05-14T13:10:23.179Z,45.55
2023-05-14T13:12:55.262Z,44.72
2023-05-14T13:15:23.876Z,49.05
2023-05-14T13:17:53.096Z,51.56
2023-05-14T13:20:23.640Z,49.38
2023-05-14T13:22:51.638Z,47.54
2023-05-14T13:25:20.312Z,49.35
2023-05-14T13:27:50.833Z,46.30
2023-05-14T13:30:20.068Z,47.68
2023-05-14T13:32:49.230Z,50.77
2023-05-14T13:35:22.026Z,47.83
2023-05-14T13:37:50.505Z,42.32
2023-05-14T13:40:18.566Z,42.12
2023-05-14T13:42:46.610Z,42.44
2023-05-14T13:45:23.751Z,42.09
2023-05-14T13:47:53.565Z,41.47
2023-05-14T13:50:32.889Z,39.09
2023-05-14T13:53:04.147Z,42.39
2023-05-14T13:55:32.421Z,44.94
2023-05-14T13:58:02.823Z,43.76
2023-05-14T14:00:37.094Z,43.44
2023-05-14T14:03:15.277Z,43.37
2023-05-14T14:05:47.006Z,43.21
2023-05-14T14:08:23.238Z,44.72
2023-05-14T14:10:55.837Z,43.62
2023-05-14T14:13:24.963Z,42.38
2023-05-14T14:15:55.535Z,44.05
2023-05-14T14:18:25.759Z,44.39
2023-05-14T14:20:58.297Z,44.75
2023-05-14T14:23:30.194Z,42.95
2023-05-14T14:26:04.740Z,43.43
2023-05-14T14:28:33.488Z,42.23
2023-05-14T14:31:03.867Z,41.95
2023-05-14T14:33:32.558Z,41.60
2023-05-14T14:36:06.479Z,40.62
2023-05-14T14:38:34.912Z,39.41
2023-05-14T14:41:08.111Z,38.72
2023-05-14T14:43:45.554Z,37.63
2023-05-14T14:46:13.940Z,37.27
2023-05-14T14:48:42.597Z,34.89
2023-05-14T14:51:11.214Z,36.81
2023-05-14T14:53:40.660Z,38.57
2023-05-14T14:56:09.138Z,38.23
2023-05-14T14:58:38.540Z,37.51
2023-05-14T15:01:09.630Z,36.10
2023-05-14T15:03:39.187Z,37.18
2023-05-14T15:06:07.690Z,38.04
2023-05-14T15:08:36.045Z,39.37
2023-05-14T15:11:04.553Z,38.66
2023-05-14T15:13:32.995Z,39.77
2023-05-14T15:16:01.339Z,39.09
2023-05-14T15:18:29.447Z,37.68
2023-05-14T15:20:57.842Z,37.07
2023-05-14T15:23:26.441Z,41.00
2023-05-14T15:25:55.440Z,47.39
2023-05-14T15:28:23.783Z,49.58
2023-05-14T15:30:56.870Z,50.50
2023-05-14T15:33:25.551Z,50.37
2023-05-14T15:35:53.633Z,50.55
2023-05-14T15:38:22.318Z,50.33
2023-05-14T15:40:51.219Z,49.10
2023-05-14T15:43:19.215Z,48.90
2023-05-14T15:45:47.382Z,46.61
2023-05-14T15:48:18.649Z,48.04
2023-05-14T15:50:49.748Z,49.71
2023-05-14T15:53:18.667Z,46.06
2023-05-14T15:55:49.232Z,45.66
2023-05-14T15:58:19.901Z,46.17
2023-05-14T16:00:57.786Z,46.53
2023-05-14T16:03:31.043Z,45.23
2023-05-14T16:08:42.430Z,45.61
2023-05-14T16:13:54.002Z,46.13
2023-05-14T16:16:23.561Z,46.61
2023-05-14T16:18:55.306Z,45.85
2023-05-14T16:21:23.620Z,46.16
2023-05-14T16:23:51.944Z,47.36
2023-05-14T16:26:27.868Z,47.31
2023-05-14T16:28:56.427Z,45.67
2023-05-14T16:31:25.976Z,46.67
2023-05-14T16:33:55.046Z,46.96
2023-05-14T16:36:23.217Z,47.85
2023-05-14T16:39:06.732Z,49.29
2023-05-14T16:44:29.190Z,53.95
2023-05-14T16:46:58.097Z,56.24
2023-05-14T16:49:26.808Z,56.84
2023-05-14T16:51:56.433Z,57.14
2023-05-14T16:54:24.968Z,57.23
2023-05-14T16:56:53.671Z,56.07
2023-05-14T16:59:26.581Z,56.72
2023-05-14T17:01:56.213Z,57.06
2023-05-14T17:04:35.543Z,57.58
2023-05-14T17:07:04.232Z,62.61
2023-05-14T17:09:32.654Z,66.71
2023-05-14T17:12:01.181Z,67.45
2023-05-14T17:14:37.116Z,67.90
2023-05-14T17:17:06.127Z,69.03
2023-05-14T17:19:34.267Z,71.73
2023-05-14T17:22:06.634Z,73.25
2023-05-14T17:24:37.878Z,74.00
2023-05-14T17:27:08.090Z,75.53
2023-05-14T17:29:39.636Z,76.40
2023-05-14T17:32:08.891Z,76.86
2023-05-14T17:34:37.468Z,77.39
2023-05-14T17:37:06.887Z,77.63
2023-05-14T17:39:39.132Z,77.72
2023-05-14T17:42:11.300Z,78.14
2023-05-14T17:44:40.487Z,78.04
2023-05-14T17:47:10.469Z,78.25
2023-05-14T17:49:39.197Z,78.80
2023-05-14T17:52:08.314Z,78.84
2023-05-14T17:54:36.847Z,79.45
2023-05-14T17:57:06.011Z,79.95
2023-05-14T17:59:35.247Z,80.15
2023-05-14T18:02:08.262Z,80.58
2023-05-14T18:04:37.068Z,81.21
2023-05-14T18:07:06.080Z,81.49
2023-05-14T18:09:35.213Z,81.82
2023-05-14T18:12:07.388Z,82.09
2023-05-14T18:14:36.005Z,82.42
2023-05-14T18:17:04.714Z,82.29
2023-05-14T18:19:38.625Z,82.76
2023-05-14T18:22:07.131Z,83.19
2023-05-14T18:24:36.414Z,83.74
2023-05-14T18:27:08.464Z,84.01
2023-05-14T18:29:37.455Z,84.24
2023-05-14T18:32:07.010Z,84.55
2023-05-14T18:34:38.768Z,84.31
2023-05-14T18:37:42.470Z,84.58
2023-05-14T18:40:17.036Z,84.63
2023-05-14T18:42:50.339Z,84.56
2023-05-14T18:45:24.639Z,84.83
2023-05-14T18:47:56.547Z,84.86
2023-05-14T18:50:26.601Z,85.07
2023-05-14T18:52:57.947Z,85.00
2023-05-14T18:55:27.308Z,84.96
2023-05-14T18:57:56.974Z,85.37
2023-05-14T19:00:34.025Z,85.43
2023-05-14T19:03:05.143Z,85.68
2023-05-14T19:05:33.926Z,85.73
2023-05-14T19:08:07.485Z,85.68
2023-05-14T19:10:36.477Z,85.77
2023-05-14T19:13:05.763Z,85.90
2023-05-14T19:15:40.853Z,85.81
2023-05-14T19:18:15.753Z,85.66
2023-05-14T19:20:49.844Z,85.77
2023-05-14T19:23:21.319Z,86.14
2023-05-14T19:25:49.918Z,86.13
2023-05-14T19:28:20.129Z,86.29
2023-05-14T19:30:51.125Z,86.39
2023-05-14T19:33:20.062Z,86.56
2023-05-14T19:35:51.480Z,86.83
2023-05-14T19:38:20.367Z,87.17
2023-05-14T19:40:50.696Z,87.43
2023-05-14T19:43:20.552Z,87.82
2023-05-14T19:45:53.420Z,87.93
2023-05-14T19:48:37.560Z,88.08
2023-05-14T19:51:45.158Z,88.42
2023-05-14T19:54:18.146Z,88.73
2023-05-14T19:56:54.316Z,89.03
2023-05-14T19:59:34.870Z,89.26
2023-05-14T20:02:13.310Z,89.53
2023-05-14T20:05:00.163Z,89.93
2023-05-14T20:10:25.216Z,90.18
2023-05-14T20:12:56.884Z,90.46
2023-05-14T20:15:37.426Z,90.84
2023-05-14T20:18:09.088Z,90.97
2023-05-14T20:20:45.353Z,91.20
2023-05-14T20:23:17.322Z,91.30
2023-05-14T20:25:51.235Z,90.93
2023-05-14T20:28:26.122Z,91.14
2023-05-14T20:31:04.747Z,90.92
2023-05-14T20:33:36.544Z,90.92
2023-05-14T20:36:06.360Z,91.07
2023-05-14T20:38:40.468Z,91.01
2023-05-14T20:41:16.772Z,90.95
2023-05-14T20:44:00.185Z,90.82
2023-05-14T20:46:31.731Z,90.73
2023-05-14T20:49:02.559Z,90.79
2023-05-14T20:51:33.123Z,90.62
2023-05-14T20:54:05.834Z,90.62
2023-05-14T20:56:39.851Z,90.69
2023-05-14T20:59:21.323Z,90.74
2023-05-14T21:02:03.828Z,90.57
2023-05-14T21:07:47.242Z,90.83
2023-05-14T21:10:44.162Z,90.94
2023-05-14T21:13:48.208Z,90.97
2023-05-14T21:16:21.074Z,91.08
2023-05-14T21:19:08.498Z,91.25
2023-05-14T21:21:41.546Z,91.42
2023-05-14T21:24:21.829Z,91.54
2023-05-14T21:26:58.366Z,91.62
2023-05-14T21:32:11.555Z,91.72
2023-05-14T21:37:58.584Z,91.73
2023-05-14T21:40:33.109Z,91.88
2023-05-14T21:43:07.398Z,91.97
2023-05-14T21:45:48.677Z,92.19
2023-05-14T21:48:17.398Z,92.33
2023-05-14T21:51:36.518Z,92.52
2023-05-14T21:56:56.598Z,92.80
2023-05-14T21:59:28.420Z,92.98
2023-05-14T22:10:07.622Z,93.22
2023-05-14T22:12:36.419Z,93.49
2023-05-14T22:15:06.174Z,93.56
2023-05-14T22:17:34.529Z,93.73
2023-05-14T22:20:07.578Z,93.86
2023-05-14T22:22:35.708Z,94.01
2023-05-14T22:25:04.553Z,94.00
2023-05-14T22:27:32.788Z,94.05
2023-05-14T22:30:01.013Z,94.25
2023-05-14T22:32:33.446Z,94.41
2023-05-14T22:35:01.948Z,94.61
2023-05-14T22:37:30.038Z,94.62
2023-05-14T22:39:58.348Z,94.69
2023-05-14T22:42:28.217Z,94.72
2023-05-14T22:44:56.392Z,94.98
2023-05-14T22:47:27.641Z,94.98
2023-05-14T22:49:55.726Z,95.12
2023-05-14T22:52:25.705Z,95.21
2023-05-14T22:54:54.660Z,95.25
2023-05-14T22:57:22.856Z,95.39
2023-05-14T22:59:50.998Z,95.50
2023-05-14T23:02:19.513Z,95.59
2023-05-14T23:04:47.896Z,95.70
2023-05-14T23:07:16.347Z,95.83
2023-05-14T23:09:44.644Z,95.99
2023-05-14T23:12:12.806Z,96.04
2023-05-14T23:14:40.824Z,96.06
2023-05-14T23:17:09.313Z,96.08
2023-05-14T23:19:37.549Z,96.20
2023-05-14T23:22:05.967Z,96.37
2023-05-14T23:24:34.290Z,96.56
2023-05-14T23:27:02.612Z,96.72
2023-05-14T23:29:33.391Z,96.87
2023-05-14T23:32:04.768Z,96.95
2023-05-14T23:34:35.588Z,97.00
2023-05-14T23:37:03.887Z,97.18
2023-05-14T23:39:32.131Z,97.17
2023-05-14T23:42:00.210Z,97.30
2023-05-14T23:44:28.558Z,97.28
2023-05-14T23:46:56.820Z,97.30
2023-05-14T23:49:24.875Z,97.20
2023-05-14T23:51:52.987Z,97.25
2023-05-14T23:54:21.526Z,97.18
2023-05-14T23:56:49.903Z,97.12
2023-05-14T23:59:18.352Z,96.96
